Terminal Aerodrome Forecast
Issued by NWS

Home | Current Version | Previous Version | Text Only | Print | Product List | Glossary Off
Versions: 1 2 3 4 5 6 7 8 9 10 11 12 13 14 15

000
FTUS43 KGRB 271700
TAFATW
TAF
KATW 271720Z 2718/2818 19005KT P6SM FEW120 SCT250
     FM280100 16003KT P6SM SCT250
     FM280600 00000KT P6SM BKN200
      TEMPO 2808/2812 3SM BR
     FM281400 23004KT P6SM FEW050 BKN200=

USA.gov is the U.S. government's official web portal to all federal, state and local government web resources and services.